sensor_id;sensor_type;location;lat;lon;timestamp;P1;durP1;ratioP1;P2;durP2;ratioP2
69542;SDS011;56762;49.494;11.768;2022-07-30T00:00:33;6.97;;;5.57;;
69542;SDS011;56762;49.494;11.768;2022-07-30T00:03:02;7.63;;;5.85;;
69542;SDS011;56762;49.494;11.768;2022-07-30T00:05:30;6.90;;;5.07;;
69542;SDS011;56762;49.494;11.768;2022-07-30T00:07:58;8.25;;;6.05;;
69542;SDS011;56762;49.494;11.768;2022-07-30T00:10:26;6.82;;;5.07;;
69542;SDS011;56762;49.494;11.768;2022-07-30T00:12:54;7.07;;;5.75;;
69542;SDS011;56762;49.494;11.768;2022-07-30T00:15:24;7.78;;;6.10;;
69542;SDS011;56762;49.494;11.768;2022-07-30T00:17:53;8.27;;;5.90;;
69542;SDS011;56762;49.494;11.768;2022-07-30T00:20:22;7.75;;;6.13;;
69542;SDS011;56762;49.494;11.768;2022-07-30T00:22:53;8.07;;;5.97;;
69542;SDS011;56762;49.494;11.768;2022-07-30T00:25:21;8.45;;;6.32;;
69542;SDS011;56762;49.494;11.768;2022-07-30T00:27:49;6.22;;;5.20;;
69542;SDS011;56762;49.494;11.768;2022-07-30T00:30:17;8.17;;;5.83;;
69542;SDS011;56762;49.494;11.768;2022-07-30T00:32:46;7.88;;;6.13;;
69542;SDS011;56762;49.494;11.768;2022-07-30T00:35:15;9.27;;;6.82;;
69542;SDS011;56762;49.494;11.768;2022-07-30T00:37:44;7.45;;;5.75;;
69542;SDS011;56762;49.494;11.768;2022-07-30T00:40:11;8.02;;;5.60;;
69542;SDS011;56762;49.494;11.768;2022-07-30T00:42:40;7.93;;;5.67;;
69542;SDS011;56762;49.494;11.768;2022-07-30T00:45:09;7.28;;;5.78;;
69542;SDS011;56762;49.494;11.768;2022-07-30T00:47:38;8.07;;;6.10;;
69542;SDS011;56762;49.494;11.768;2022-07-30T00:50:09;8.40;;;6.03;;
69542;SDS011;56762;49.494;11.768;2022-07-30T00:52:39;9.00;;;6.18;;
69542;SDS011;56762;49.494;11.768;2022-07-30T00:55:09;9.03;;;6.90;;
69542;SDS011;56762;49.494;11.768;2022-07-30T00:57:39;8.80;;;6.40;;
69542;SDS011;56762;49.494;11.768;2022-07-30T01:00:09;7.60;;;6.00;;
69542;SDS011;56762;49.494;11.768;2022-07-30T01:02:39;8.10;;;6.05;;
69542;SDS011;56762;49.494;11.768;2022-07-30T01:05:10;7.88;;;5.95;;
69542;SDS011;56762;49.494;11.768;2022-07-30T01:07:37;8.87;;;6.70;;
69542;SDS011;56762;49.494;11.768;2022-07-30T01:10:06;7.97;;;6.15;;
69542;SDS011;56762;49.494;11.768;2022-07-30T01:12:36;7.65;;;6.60;;
69542;SDS011;56762;49.494;11.768;2022-07-30T01:15:05;9.05;;;6.75;;
69542;SDS011;56762;49.494;11.768;2022-07-30T01:17:36;9.32;;;6.80;;
69542;SDS011;56762;49.494;11.768;2022-07-30T01:20:05;10.93;;;7.23;;
69542;SDS011;56762;49.494;11.768;2022-07-30T01:22:46;8.40;;;6.78;;
69542;SDS011;56762;49.494;11.768;2022-07-30T01:25:21;10.90;;;7.03;;
69542;SDS011;56762;49.494;11.768;2022-07-30T01:27:59;8.30;;;7.00;;
69542;SDS011;56762;49.494;11.768;2022-07-30T01:30:31;8.70;;;6.07;;
69542;SDS011;56762;49.494;11.768;2022-07-30T01:33:04;8.50;;;7.00;;
69542;SDS011;56762;49.494;11.768;2022-07-30T01:35:33;8.35;;;6.35;;
69542;SDS011;56762;49.494;11.768;2022-07-30T01:38:03;8.82;;;6.55;;
69542;SDS011;56762;49.494;11.768;2022-07-30T01:40:32;8.38;;;6.57;;
69542;SDS011;56762;49.494;11.768;2022-07-30T01:43:03;8.57;;;6.18;;
69542;SDS011;56762;49.494;11.768;2022-07-30T01:45:36;7.93;;;5.97;;
69542;SDS011;56762;49.494;11.768;2022-07-30T01:48:10;9.02;;;6.22;;
69542;SDS011;56762;49.494;11.768;2022-07-30T01:50:41;8.73;;;5.35;;
69542;SDS011;56762;49.494;11.768;2022-07-30T01:53:12;8.85;;;6.75;;
69542;SDS011;56762;49.494;11.768;2022-07-30T01:55:42;8.60;;;6.43;;
69542;SDS011;56762;49.494;11.768;2022-07-30T01:58:12;7.70;;;5.83;;
69542;SDS011;56762;49.494;11.768;2022-07-30T02:00:43;9.38;;;6.50;;
69542;SDS011;56762;49.494;11.768;2022-07-30T02:03:12;7.80;;;5.90;;
69542;SDS011;56762;49.494;11.768;2022-07-30T02:05:44;7.93;;;6.03;;
69542;SDS011;56762;49.494;11.768;2022-07-30T02:08:21;6.82;;;5.05;;
69542;SDS011;56762;49.494;11.768;2022-07-30T02:10:56;7.73;;;5.63;;
69542;SDS011;56762;49.494;11.768;2022-07-30T02:13:30;7.28;;;5.53;;
69542;SDS011;56762;49.494;11.768;2022-07-30T02:16:03;7.03;;;5.13;;
69542;SDS011;56762;49.494;11.768;2022-07-30T02:18:39;7.65;;;5.60;;
69542;SDS011;56762;49.494;11.768;2022-07-30T02:21:13;8.82;;;6.25;;
69542;SDS011;56762;49.494;11.768;2022-07-30T02:23:45;7.20;;;5.07;;
69542;SDS011;56762;49.494;11.768;2022-07-30T02:26:16;6.55;;;4.78;;
69542;SDS011;56762;49.494;11.768;2022-07-30T02:28:50;8.75;;;5.85;;
69542;SDS011;56762;49.494;11.768;2022-07-30T02:31:22;8.65;;;6.32;;
69542;SDS011;56762;49.494;11.768;2022-07-30T02:33:55;8.98;;;6.65;;
69542;SDS011;56762;49.494;11.768;2022-07-30T02:36:27;8.50;;;6.03;;
69542;SDS011;56762;49.494;11.768;2022-07-30T02:38:58;9.85;;;6.78;;
69542;SDS011;56762;49.494;11.768;2022-07-30T02:41:28;9.45;;;7.05;;
69542;SDS011;56762;49.494;11.768;2022-07-30T02:44:01;7.75;;;5.57;;
69542;SDS011;56762;49.494;11.768;2022-07-30T02:46:30;7.78;;;5.80;;
69542;SDS011;56762;49.494;11.768;2022-07-30T02:48:59;7.30;;;5.30;;
69542;SDS011;56762;49.494;11.768;2022-07-30T02:51:28;6.75;;;4.85;;
69542;SDS011;56762;49.494;11.768;2022-07-30T02:53:58;7.47;;;5.75;;
69542;SDS011;56762;49.494;11.768;2022-07-30T02:56:29;8.00;;;5.25;;
69542;SDS011;56762;49.494;11.768;2022-07-30T02:58:58;7.90;;;5.53;;
69542;SDS011;56762;49.494;11.768;2022-07-30T03:01:31;7.97;;;5.80;;
69542;SDS011;56762;49.494;11.768;2022-07-30T03:04:01;7.00;;;5.15;;
69542;SDS011;56762;49.494;11.768;2022-07-30T03:06:32;6.55;;;5.13;;
69542;SDS011;56762;49.494;11.768;2022-07-30T03:09:01;6.78;;;4.88;;
69542;SDS011;56762;49.494;11.768;2022-07-30T03:11:30;7.35;;;5.32;;
69542;SDS011;56762;49.494;11.768;2022-07-30T03:14:02;7.77;;;5.03;;
69542;SDS011;56762;49.494;11.768;2022-07-30T03:16:33;7.90;;;5.28;;
69542;SDS011;56762;49.494;11.768;2022-07-30T03:19:04;7.85;;;5.57;;
69542;SDS011;56762;49.494;11.768;2022-07-30T03:21:35;7.45;;;5.18;;
69542;SDS011;56762;49.494;11.768;2022-07-30T03:24:05;8.30;;;5.40;;
69542;SDS011;56762;49.494;11.768;2022-07-30T03:26:35;7.23;;;5.23;;
69542;SDS011;56762;49.494;11.768;2022-07-30T03:29:06;7.47;;;4.80;;
69542;SDS011;56762;49.494;11.768;2022-07-30T03:31:37;7.90;;;5.28;;
69542;SDS011;56762;49.494;11.768;2022-07-30T03:34:07;8.52;;;5.95;;
69542;SDS011;56762;49.494;11.768;2022-07-30T03:36:38;7.72;;;5.15;;
69542;SDS011;56762;49.494;11.768;2022-07-30T03:39:06;7.83;;;5.10;;
69542;SDS011;56762;49.494;11.768;2022-07-30T03:41:35;7.82;;;5.03;;
69542;SDS011;56762;49.494;11.768;2022-07-30T03:44:05;8.93;;;6.00;;
69542;SDS011;56762;49.494;11.768;2022-07-30T03:46:35;7.50;;;5.47;;
69542;SDS011;56762;49.494;11.768;2022-07-30T03:49:04;9.70;;;5.70;;
69542;SDS011;56762;49.494;11.768;2022-07-30T03:51:32;9.20;;;6.20;;
69542;SDS011;56762;49.494;11.768;2022-07-30T03:54:03;9.52;;;6.20;;
69542;SDS011;56762;49.494;11.768;2022-07-30T03:56:38;11.25;;;6.53;;
69542;SDS011;56762;49.494;11.768;2022-07-30T03:59:09;10.10;;;5.72;;
69542;SDS011;56762;49.494;11.768;2022-07-30T04:01:39;10.82;;;7.00;;
69542;SDS011;56762;49.494;11.768;2022-07-30T04:04:07;13.23;;;6.77;;
69542;SDS011;56762;49.494;11.768;2022-07-30T04:06:37;10.90;;;6.82;;
69542;SDS011;56762;49.494;11.768;2022-07-30T04:09:06;11.05;;;7.22;;
69542;SDS011;56762;49.494;11.768;2022-07-30T04:11:35;12.27;;;7.38;;
69542;SDS011;56762;49.494;11.768;2022-07-30T04:14:06;11.75;;;7.30;;
69542;SDS011;56762;49.494;11.768;2022-07-30T04:16:37;14.70;;;8.07;;
69542;SDS011;56762;49.494;11.768;2022-07-30T04:19:11;12.55;;;7.68;;
69542;SDS011;56762;49.494;11.768;2022-07-30T04:21:45;13.07;;;8.00;;
69542;SDS011;56762;49.494;11.768;2022-07-30T04:24:14;13.35;;;7.47;;
69542;SDS011;56762;49.494;11.768;2022-07-30T04:26:44;14.20;;;7.93;;
69542;SDS011;56762;49.494;11.768;2022-07-30T04:29:15;14.40;;;7.93;;
69542;SDS011;56762;49.494;11.768;2022-07-30T04:31:50;15.05;;;8.15;;
69542;SDS011;56762;49.494;11.768;2022-07-30T04:34:20;14.32;;;8.75;;
69542;SDS011;56762;49.494;11.768;2022-07-30T04:36:48;14.93;;;8.95;;
69542;SDS011;56762;49.494;11.768;2022-07-30T04:39:16;15.70;;;9.18;;
69542;SDS011;56762;49.494;11.768;2022-07-30T04:41:44;15.00;;;8.73;;
69542;SDS011;56762;49.494;11.768;2022-07-30T04:44:17;14.57;;;8.27;;
69542;SDS011;56762;49.494;11.768;2022-07-30T04:46:46;14.50;;;8.30;;
69542;SDS011;56762;49.494;11.768;2022-07-30T04:49:15;16.83;;;9.38;;
69542;SDS011;56762;49.494;11.768;2022-07-30T04:51:46;17.73;;;9.68;;
69542;SDS011;56762;49.494;11.768;2022-07-30T04:54:15;15.07;;;9.83;;
69542;SDS011;56762;49.494;11.768;2022-07-30T04:56:46;15.32;;;9.05;;
69542;SDS011;56762;49.494;11.768;2022-07-30T04:59:21;18.42;;;9.63;;
69542;SDS011;56762;49.494;11.768;2022-07-30T05:01:52;18.50;;;9.73;;
69542;SDS011;56762;49.494;11.768;2022-07-30T05:04:24;19.75;;;10.57;;
69542;SDS011;56762;49.494;11.768;2022-07-30T05:06:54;17.07;;;9.30;;
69542;SDS011;56762;49.494;11.768;2022-07-30T05:09:24;17.70;;;9.57;;
69542;SDS011;56762;49.494;11.768;2022-07-30T05:11:53;13.48;;;8.23;;
69542;SDS011;56762;49.494;11.768;2022-07-30T05:14:23;17.45;;;10.32;;
69542;SDS011;56762;49.494;11.768;2022-07-30T05:16:53;18.33;;;9.98;;
69542;SDS011;56762;49.494;11.768;2022-07-30T05:19:21;14.57;;;8.43;;
69542;SDS011;56762;49.494;11.768;2022-07-30T05:21:50;16.65;;;9.52;;
69542;SDS011;56762;49.494;11.768;2022-07-30T05:24:18;18.25;;;10.57;;
69542;SDS011;56762;49.494;11.768;2022-07-30T05:26:47;19.40;;;10.68;;
69542;SDS011;56762;49.494;11.768;2022-07-30T05:29:15;18.05;;;10.45;;
69542;SDS011;56762;49.494;11.768;2022-07-30T05:31:47;16.93;;;10.10;;
69542;SDS011;56762;49.494;11.768;2022-07-30T05:34:14;17.15;;;10.25;;
69542;SDS011;56762;49.494;11.768;2022-07-30T05:36:43;16.42;;;9.82;;
69542;SDS011;56762;49.494;11.768;2022-07-30T05:39:12;16.35;;;10.25;;
69542;SDS011;56762;49.494;11.768;2022-07-30T05:41:42;17.80;;;10.13;;
69542;SDS011;56762;49.494;11.768;2022-07-30T05:44:10;14.90;;;8.93;;
69542;SDS011;56762;49.494;11.768;2022-07-30T05:46:38;15.02;;;9.70;;
69542;SDS011;56762;49.494;11.768;2022-07-30T05:49:09;15.38;;;9.10;;
69542;SDS011;56762;49.494;11.768;2022-07-30T05:51:37;16.67;;;9.60;;
69542;SDS011;56762;49.494;11.768;2022-07-30T05:54:06;14.40;;;8.52;;
69542;SDS011;56762;49.494;11.768;2022-07-30T05:56:34;12.00;;;7.33;;
69542;SDS011;56762;49.494;11.768;2022-07-30T05:59:02;12.25;;;7.65;;
69542;SDS011;56762;49.494;11.768;2022-07-30T06:01:30;12.32;;;7.68;;
69542;SDS011;56762;49.494;11.768;2022-07-30T06:03:58;11.27;;;7.43;;
69542;SDS011;56762;49.494;11.768;2022-07-30T06:06:28;15.45;;;9.80;;
69542;SDS011;56762;49.494;11.768;2022-07-30T06:08:56;12.07;;;8.13;;
69542;SDS011;56762;49.494;11.768;2022-07-30T06:11:24;12.52;;;7.75;;
69542;SDS011;56762;49.494;11.768;2022-07-30T06:13:53;10.45;;;6.63;;
69542;SDS011;56762;49.494;11.768;2022-07-30T06:16:20;10.77;;;6.75;;
69542;SDS011;56762;49.494;11.768;2022-07-30T06:18:49;11.48;;;6.45;;
69542;SDS011;56762;49.494;11.768;2022-07-30T06:21:17;12.17;;;6.23;;
69542;SDS011;56762;49.494;11.768;2022-07-30T06:23:46;8.57;;;5.50;;
69542;SDS011;56762;49.494;11.768;2022-07-30T06:26:14;7.63;;;5.28;;
69542;SDS011;56762;49.494;11.768;2022-07-30T06:28:43;7.88;;;4.55;;
69542;SDS011;56762;49.494;11.768;2022-07-30T06:31:11;8.02;;;4.90;;
69542;SDS011;56762;49.494;11.768;2022-07-30T06:33:39;6.10;;;4.53;;
69542;SDS011;56762;49.494;11.768;2022-07-30T06:36:09;10.50;;;6.28;;
69542;SDS011;56762;49.494;11.768;2022-07-30T06:38:39;8.50;;;5.43;;
69542;SDS011;56762;49.494;11.768;2022-07-30T06:41:09;6.97;;;4.07;;
69542;SDS011;56762;49.494;11.768;2022-07-30T06:43:38;5.93;;;3.78;;
69542;SDS011;56762;49.494;11.768;2022-07-30T06:46:05;8.00;;;4.00;;
69542;SDS011;56762;49.494;11.768;2022-07-30T06:48:33;5.75;;;3.80;;
69542;SDS011;56762;49.494;11.768;2022-07-30T06:51:02;7.70;;;4.20;;
69542;SDS011;56762;49.494;11.768;2022-07-30T06:53:30;6.25;;;3.83;;
69542;SDS011;56762;49.494;11.768;2022-07-30T06:56:08;7.85;;;3.63;;
69542;SDS011;56762;49.494;11.768;2022-07-30T06:58:36;7.10;;;4.07;;
69542;SDS011;56762;49.494;11.768;2022-07-30T07:01:04;6.22;;;3.65;;
69542;SDS011;56762;49.494;11.768;2022-07-30T07:03:36;5.30;;;3.30;;
69542;SDS011;56762;49.494;11.768;2022-07-30T07:06:06;5.53;;;3.25;;
69542;SDS011;56762;49.494;11.768;2022-07-30T07:08:34;5.70;;;3.00;;
69542;SDS011;56762;49.494;11.768;2022-07-30T07:11:03;6.20;;;3.30;;
69542;SDS011;56762;49.494;11.768;2022-07-30T07:13:32;4.75;;;3.08;;
69542;SDS011;56762;49.494;11.768;2022-07-30T07:16:00;5.43;;;3.42;;
69542;SDS011;56762;49.494;11.768;2022-07-30T07:18:28;6.05;;;3.55;;
69542;SDS011;56762;49.494;11.768;2022-07-30T07:20:56;6.43;;;3.60;;
69542;SDS011;56762;49.494;11.768;2022-07-30T07:23:24;6.63;;;3.67;;
69542;SDS011;56762;49.494;11.768;2022-07-30T07:26:08;7.10;;;4.18;;
69542;SDS011;56762;49.494;11.768;2022-07-30T07:28:41;5.75;;;3.58;;
69542;SDS011;56762;49.494;11.768;2022-07-30T07:31:09;5.93;;;3.28;;
69542;SDS011;56762;49.494;11.768;2022-07-30T07:33:57;5.97;;;3.83;;
69542;SDS011;56762;49.494;11.768;2022-07-30T07:36:26;5.67;;;3.60;;
69542;SDS011;56762;49.494;11.768;2022-07-30T07:38:54;5.72;;;3.65;;
69542;SDS011;56762;49.494;11.768;2022-07-30T07:41:21;6.68;;;4.53;;
69542;SDS011;56762;49.494;11.768;2022-07-30T07:43:51;7.18;;;4.88;;
69542;SDS011;56762;49.494;11.768;2022-07-30T07:46:19;6.80;;;4.13;;
69542;SDS011;56762;49.494;11.768;2022-07-30T07:48:59;7.53;;;4.07;;
69542;SDS011;56762;49.494;11.768;2022-07-30T07:51:27;7.03;;;4.65;;
69542;SDS011;56762;49.494;11.768;2022-07-30T07:54:13;7.40;;;5.10;;
69542;SDS011;56762;49.494;11.768;2022-07-30T07:56:48;7.57;;;5.22;;
69542;SDS011;56762;49.494;11.768;2022-07-30T07:59:19;6.07;;;4.00;;
69542;SDS011;56762;49.494;11.768;2022-07-30T08:01:52;5.87;;;3.93;;
69542;SDS011;56762;49.494;11.768;2022-07-30T08:04:20;5.55;;;3.85;;
69542;SDS011;56762;49.494;11.768;2022-07-30T08:06:48;7.18;;;4.82;;
69542;SDS011;56762;49.494;11.768;2022-07-30T08:09:15;6.00;;;4.30;;
69542;SDS011;56762;49.494;11.768;2022-07-30T08:11:43;5.53;;;3.70;;
69542;SDS011;56762;49.494;11.768;2022-07-30T08:14:11;4.40;;;2.87;;
69542;SDS011;56762;49.494;11.768;2022-07-30T08:16:41;6.05;;;3.58;;
69542;SDS011;56762;49.494;11.768;2022-07-30T08:19:09;5.75;;;4.00;;
69542;SDS011;56762;49.494;11.768;2022-07-30T08:21:37;7.20;;;4.53;;
69542;SDS011;56762;49.494;11.768;2022-07-30T08:24:05;7.72;;;4.32;;
69542;SDS011;56762;49.494;11.768;2022-07-30T08:26:33;4.80;;;3.40;;
69542;SDS011;56762;49.494;11.768;2022-07-30T08:29:01;6.93;;;4.05;;
69542;SDS011;56762;49.494;11.768;2022-07-30T08:31:29;4.93;;;3.40;;
69542;SDS011;56762;49.494;11.768;2022-07-30T08:33:59;6.35;;;3.58;;
69542;SDS011;56762;49.494;11.768;2022-07-30T08:36:27;5.55;;;3.97;;
69542;SDS011;56762;49.494;11.768;2022-07-30T08:38:55;6.13;;;4.37;;
69542;SDS011;56762;49.494;11.768;2022-07-30T08:41:22;7.00;;;4.70;;
69542;SDS011;56762;49.494;11.768;2022-07-30T08:43:52;6.35;;;4.82;;
69542;SDS011;56762;49.494;11.768;2022-07-30T08:46:22;8.75;;;6.60;;
69542;SDS011;56762;49.494;11.768;2022-07-30T08:48:51;7.40;;;4.90;;
69542;SDS011;56762;49.494;11.768;2022-07-30T08:51:20;6.83;;;4.97;;
69542;SDS011;56762;49.494;11.768;2022-07-30T08:53:49;6.53;;;4.85;;
69542;SDS011;56762;49.494;11.768;2022-07-30T08:56:17;8.27;;;5.97;;
69542;SDS011;56762;49.494;11.768;2022-07-30T08:58:46;7.20;;;5.53;;
69542;SDS011;56762;49.494;11.768;2022-07-30T09:01:14;8.30;;;5.82;;
69542;SDS011;56762;49.494;11.768;2022-07-30T09:03:42;8.90;;;6.60;;
69542;SDS011;56762;49.494;11.768;2022-07-30T09:06:10;7.97;;;5.65;;
69542;SDS011;56762;49.494;11.768;2022-07-30T09:08:39;6.78;;;4.70;;
69542;SDS011;56762;49.494;11.768;2022-07-30T09:11:08;6.72;;;4.72;;
69542;SDS011;56762;49.494;11.768;2022-07-30T09:13:37;6.82;;;5.07;;
69542;SDS011;56762;49.494;11.768;2022-07-30T09:16:07;7.60;;;4.70;;
69542;SDS011;56762;49.494;11.768;2022-07-30T09:18:46;6.35;;;4.72;;
69542;SDS011;56762;49.494;11.768;2022-07-30T09:21:14;8.85;;;5.20;;
69542;SDS011;56762;49.494;11.768;2022-07-30T09:23:58;5.53;;;4.35;;
69542;SDS011;56762;49.494;11.768;2022-07-30T09:26:27;5.30;;;4.20;;
69542;SDS011;56762;49.494;11.768;2022-07-30T09:31:51;5.10;;;3.45;;
69542;SDS011;56762;49.494;11.768;2022-07-30T09:34:23;5.50;;;3.95;;
69542;SDS011;56762;49.494;11.768;2022-07-30T09:36:55;5.47;;;3.83;;
69542;SDS011;56762;49.494;11.768;2022-07-30T09:39:29;4.97;;;3.92;;
69542;SDS011;56762;49.494;11.768;2022-07-30T09:41:59;4.73;;;3.90;;
69542;SDS011;56762;49.494;11.768;2022-07-30T09:44:29;6.78;;;4.38;;
69542;SDS011;56762;49.494;11.768;2022-07-30T09:46:57;7.07;;;3.80;;
69542;SDS011;56762;49.494;11.768;2022-07-30T09:49:27;4.90;;;3.60;;
69542;SDS011;56762;49.494;11.768;2022-07-30T09:51:55;5.63;;;3.50;;
69542;SDS011;56762;49.494;11.768;2022-07-30T09:54:23;5.20;;;3.37;;
69542;SDS011;56762;49.494;11.768;2022-07-30T09:57:03;4.57;;;3.60;;
69542;SDS011;56762;49.494;11.768;2022-07-30T09:59:53;4.15;;;3.35;;
69542;SDS011;56762;49.494;11.768;2022-07-30T10:02:31;6.22;;;3.50;;
69542;SDS011;56762;49.494;11.768;2022-07-30T10:05:08;4.20;;;2.95;;
69542;SDS011;56762;49.494;11.768;2022-07-30T10:07:45;4.27;;;3.57;;
69542;SDS011;56762;49.494;11.768;2022-07-30T10:10:17;4.45;;;2.97;;
69542;SDS011;56762;49.494;11.768;2022-07-30T10:12:53;4.93;;;3.50;;
69542;SDS011;56762;49.494;11.768;2022-07-30T10:15:24;4.95;;;3.17;;
69542;SDS011;56762;49.494;11.768;2022-07-30T10:17:58;4.82;;;3.10;;
69542;SDS011;56762;49.494;11.768;2022-07-30T10:20:26;4.90;;;3.10;;
69542;SDS011;56762;49.494;11.768;2022-07-30T10:22:57;3.75;;;3.08;;
69542;SDS011;56762;49.494;11.768;2022-07-30T10:25:34;4.53;;;2.70;;
69542;SDS011;56762;49.494;11.768;2022-07-30T10:28:22;4.68;;;2.90;;
69542;SDS011;56762;49.494;11.768;2022-07-30T10:30:52;3.85;;;2.90;;
69542;SDS011;56762;49.494;11.768;2022-07-30T10:33:21;3.53;;;2.53;;
69542;SDS011;56762;49.494;11.768;2022-07-30T10:36:04;3.95;;;2.60;;
69542;SDS011;56762;49.494;11.768;2022-07-30T10:38:34;3.50;;;2.72;;
69542;SDS011;56762;49.494;11.768;2022-07-30T10:41:10;3.83;;;2.70;;
69542;SDS011;56762;49.494;11.768;2022-07-30T10:44:14;3.90;;;2.50;;
69542;SDS011;56762;49.494;11.768;2022-07-30T10:46:55;4.80;;;2.20;;
69542;SDS011;56762;49.494;11.768;2022-07-30T10:49:33;3.65;;;2.30;;
69542;SDS011;56762;49.494;11.768;2022-07-30T10:52:08;3.10;;;2.17;;
69542;SDS011;56762;49.494;11.768;2022-07-30T10:54:38;3.33;;;2.45;;
69542;SDS011;56762;49.494;11.768;2022-07-30T10:57:10;3.38;;;2.28;;
69542;SDS011;56762;49.494;11.768;2022-07-30T11:00:12;3.37;;;2.60;;
69542;SDS011;56762;49.494;11.768;2022-07-30T11:05:43;3.63;;;2.33;;
69542;SDS011;56762;49.494;11.768;2022-07-30T11:08:29;3.67;;;2.50;;
69542;SDS011;56762;49.494;11.768;2022-07-30T11:11:02;3.55;;;2.53;;
69542;SDS011;56762;49.494;11.768;2022-07-30T11:14:15;3.57;;;2.77;;
69542;SDS011;56762;49.494;11.768;2022-07-30T11:16:59;3.33;;;2.40;;
69542;SDS011;56762;49.494;11.768;2022-07-30T11:19:29;4.80;;;3.20;;
69542;SDS011;56762;49.494;11.768;2022-07-30T11:22:21;4.00;;;3.13;;
69542;SDS011;56762;49.494;11.768;2022-07-30T11:24:50;2.53;;;2.00;;
69542;SDS011;56762;49.494;11.768;2022-07-30T11:27:33;3.40;;;2.40;;
69542;SDS011;56762;49.494;11.768;2022-07-30T11:33:21;5.88;;;4.32;;
69542;SDS011;56762;49.494;11.768;2022-07-30T11:36:06;8.15;;;3.30;;
69542;SDS011;56762;49.494;11.768;2022-07-30T11:38:49;4.38;;;2.97;;
69542;SDS011;56762;49.494;11.768;2022-07-30T11:41:18;3.87;;;2.33;;
69542;SDS011;56762;49.494;11.768;2022-07-30T11:43:46;3.67;;;2.70;;
69542;SDS011;56762;49.494;11.768;2022-07-30T11:46:15;3.60;;;2.15;;
69542;SDS011;56762;49.494;11.768;2022-07-30T11:48:56;3.03;;;2.15;;
69542;SDS011;56762;49.494;11.768;2022-07-30T11:51:25;2.83;;;2.45;;
69542;SDS011;56762;49.494;11.768;2022-07-30T11:54:01;2.70;;;2.00;;
69542;SDS011;56762;49.494;11.768;2022-07-30T11:56:29;2.80;;;1.90;;
69542;SDS011;56762;49.494;11.768;2022-07-30T11:59:01;2.60;;;1.90;;
69542;SDS011;56762;49.494;11.768;2022-07-30T12:01:30;3.42;;;2.15;;
69542;SDS011;56762;49.494;11.768;2022-07-30T12:04:02;2.92;;;2.10;;
69542;SDS011;56762;49.494;11.768;2022-07-30T12:06:31;3.97;;;2.40;;
69542;SDS011;56762;49.494;11.768;2022-07-30T12:09:01;2.75;;;2.17;;
69542;SDS011;56762;49.494;11.768;2022-07-30T12:11:30;3.95;;;2.40;;
69542;SDS011;56762;49.494;11.768;2022-07-30T12:13:59;3.63;;;2.13;;
69542;SDS011;56762;49.494;11.768;2022-07-30T12:16:28;3.08;;;2.00;;
69542;SDS011;56762;49.494;11.768;2022-07-30T12:18:59;3.33;;;1.73;;
69542;SDS011;56762;49.494;11.768;2022-07-30T12:21:29;2.45;;;1.80;;
69542;SDS011;56762;49.494;11.768;2022-07-30T12:23:59;3.20;;;2.10;;
69542;SDS011;56762;49.494;11.768;2022-07-30T12:26:29;2.60;;;2.03;;
69542;SDS011;56762;49.494;11.768;2022-07-30T12:28:58;4.13;;;2.00;;
69542;SDS011;56762;49.494;11.768;2022-07-30T12:31:29;3.40;;;1.97;;
69542;SDS011;56762;49.494;11.768;2022-07-30T12:34:05;4.68;;;2.20;;
69542;SDS011;56762;49.494;11.768;2022-07-30T12:36:45;4.07;;;2.10;;
69542;SDS011;56762;49.494;11.768;2022-07-30T12:39:17;4.65;;;2.10;;
69542;SDS011;56762;49.494;11.768;2022-07-30T12:41:47;3.13;;;2.10;;
69542;SDS011;56762;49.494;11.768;2022-07-30T12:44:34;2.70;;;2.17;;
69542;SDS011;56762;49.494;11.768;2022-07-30T12:47:04;4.68;;;2.00;;
69542;SDS011;56762;49.494;11.768;2022-07-30T12:49:34;4.40;;;2.03;;
69542;SDS011;56762;49.494;11.768;2022-07-30T12:52:21;3.80;;;1.88;;
69542;SDS011;56762;49.494;11.768;2022-07-30T12:55:01;3.78;;;1.70;;
69542;SDS011;56762;49.494;11.768;2022-07-30T13:00:28;2.80;;;1.70;;
69542;SDS011;56762;49.494;11.768;2022-07-30T13:02:57;3.88;;;2.05;;
69542;SDS011;56762;49.494;11.768;2022-07-30T13:05:42;2.50;;;1.90;;
69542;SDS011;56762;49.494;11.768;2022-07-30T13:08:11;4.22;;;2.00;;
69542;SDS011;56762;49.494;11.768;2022-07-30T13:10:52;2.77;;;1.70;;
69542;SDS011;56762;49.494;11.768;2022-07-30T13:13:20;3.53;;;1.70;;
69542;SDS011;56762;49.494;11.768;2022-07-30T13:15:55;2.75;;;2.10;;
69542;SDS011;56762;49.494;11.768;2022-07-30T13:18:24;2.67;;;1.77;;
69542;SDS011;56762;49.494;11.768;2022-07-30T13:20:53;3.35;;;1.90;;
69542;SDS011;56762;49.494;11.768;2022-07-30T13:23:21;3.07;;;2.10;;
69542;SDS011;56762;49.494;11.768;2022-07-30T13:25:49;3.15;;;2.10;;
69542;SDS011;56762;49.494;11.768;2022-07-30T13:28:17;3.75;;;2.20;;
69542;SDS011;56762;49.494;11.768;2022-07-30T13:30:45;3.58;;;2.20;;
69542;SDS011;56762;49.494;11.768;2022-07-30T13:33:14;2.78;;;2.20;;
69542;SDS011;56762;49.494;11.768;2022-07-30T13:35:42;3.57;;;2.07;;
69542;SDS011;56762;49.494;11.768;2022-07-30T13:38:11;3.85;;;2.53;;
69542;SDS011;56762;49.494;11.768;2022-07-30T13:40:41;3.38;;;2.00;;
69542;SDS011;56762;49.494;11.768;2022-07-30T13:43:09;2.65;;;1.90;;
69542;SDS011;56762;49.494;11.768;2022-07-30T13:45:36;3.45;;;2.00;;
69542;SDS011;56762;49.494;11.768;2022-07-30T13:48:05;3.13;;;1.80;;
69542;SDS011;56762;49.494;11.768;2022-07-30T13:50:33;4.38;;;1.98;;
69542;SDS011;56762;49.494;11.768;2022-07-30T13:53:00;3.42;;;2.17;;
69542;SDS011;56762;49.494;11.768;2022-07-30T13:55:30;3.63;;;2.28;;
69542;SDS011;56762;49.494;11.768;2022-07-30T13:57:58;3.42;;;1.60;;
69542;SDS011;56762;49.494;11.768;2022-07-30T14:00:27;3.23;;;1.93;;
69542;SDS011;56762;49.494;11.768;2022-07-30T14:02:58;2.72;;;2.08;;
69542;SDS011;56762;49.494;11.768;2022-07-30T14:05:27;3.00;;;1.83;;
69542;SDS011;56762;49.494;11.768;2022-07-30T14:07:55;11.10;;;5.13;;
69542;SDS011;56762;49.494;11.768;2022-07-30T14:10:23;7.07;;;4.05;;
69542;SDS011;56762;49.494;11.768;2022-07-30T14:12:53;4.07;;;2.40;;
69542;SDS011;56762;49.494;11.768;2022-07-30T14:15:21;3.08;;;2.00;;
69542;SDS011;56762;49.494;11.768;2022-07-30T14:17:50;4.22;;;2.10;;
69542;SDS011;56762;49.494;11.768;2022-07-30T14:20:21;3.05;;;1.98;;
69542;SDS011;56762;49.494;11.768;2022-07-30T14:22:54;2.85;;;2.00;;
69542;SDS011;56762;49.494;11.768;2022-07-30T14:25:22;2.67;;;1.90;;
69542;SDS011;56762;49.494;11.768;2022-07-30T14:27:50;3.55;;;2.45;;
69542;SDS011;56762;49.494;11.768;2022-07-30T14:30:19;4.70;;;2.88;;
69542;SDS011;56762;49.494;11.768;2022-07-30T14:32:49;4.38;;;2.72;;
69542;SDS011;56762;49.494;11.768;2022-07-30T14:35:25;7.13;;;3.75;;
69542;SDS011;56762;49.494;11.768;2022-07-30T14:37:53;5.93;;;2.60;;
69542;SDS011;56762;49.494;11.768;2022-07-30T14:40:21;3.28;;;2.00;;
69542;SDS011;56762;49.494;11.768;2022-07-30T14:42:49;3.47;;;1.80;;
69542;SDS011;56762;49.494;11.768;2022-07-30T14:45:22;3.50;;;2.13;;
69542;SDS011;56762;49.494;11.768;2022-07-30T14:47:50;4.72;;;2.28;;
69542;SDS011;56762;49.494;11.768;2022-07-30T14:50:18;3.53;;;2.33;;
69542;SDS011;56762;49.494;11.768;2022-07-30T14:52:46;3.33;;;2.10;;
69542;SDS011;56762;49.494;11.768;2022-07-30T14:55:14;2.92;;;1.88;;
69542;SDS011;56762;49.494;11.768;2022-07-30T14:57:42;4.68;;;2.20;;
69542;SDS011;56762;49.494;11.768;2022-07-30T15:00:10;3.83;;;2.42;;
69542;SDS011;56762;49.494;11.768;2022-07-30T15:02:40;3.70;;;1.70;;
69542;SDS011;56762;49.494;11.768;2022-07-30T15:05:08;3.75;;;1.75;;